Friday, May 06, 2016
11:11 UTC
  |  Log In   |  Register Free
Airport Search:

Tucson International Airport
(KTUS)

Airport information sponsored by:
Bombardier Aerospace at Tucson International (KTUS), Tucson, AZ
FAA data valid effective Mar 31 2016 - May 26 2016 (unless otherwise noted).

 
 
 
 
 
 
 
 
 
 
 
 
 
 
Current Aviation Weather for KTUS

Weather Summary


The most recent METAR observation for TUS was updated at: 12:53 UTC
METAR for KTUS is not available. Closest METAR is for KDMA
KTUS  (most recent observation was updatred at 61:05 UTC)
061053Z 23006KT 10SM CLR 19/02 A2985 RMK AO2 SLP063 T01940022

KDMA  (4.2 nm SW)   (most recent observation was updated at 61:05 UTC)
061058Z AUTO 17006KT 10SM CLR 20/03 A2984 RMK AO2 SLP061 T02020029 $

KAVQ  (22.5 nm SE)   (most recent observation was updated at 61:05 UTC)
061055Z AUTO 21006KT 10SM CLR 20/00 A2983 RMK AO2 T01960000

TAF for KTUS is not available.
KTUS
060536Z 0606/0706 29007KT P6SM SKC FM060800 18007KT P6SM SKC FM061600 21014G22KT P6SM FEW100 FM061900 22020G30KT P6SM SCT100 FM070200 24013KT P6SM SCT100

KDMA  (4.2 nm SW)   (most recent observation was updatred at 60:50 UTC)
060503Z 0605/0711 16009KT 9999 SKC QNH2981INS BECMG 0614/0615 20012KT 9999 FEW120 QNH2992INS BECMG 0618/0619 20015G25KT 9999 SCT120 510009 QNH2990INS BECMG 0702/0703 21009KT 9999 FEW120 QNH2989INS BECMG 0705/0706 16006KT 9999 SKC QNH2995INS TX24/0622Z TN09/0612Z
GlobalAir.com is loading additional information.
 Current Weather at TUS
68.0 F° (20.0 C°)

Northeast winds at 3.5 mph
Pressure:
29.85 in
Humidity:
31%
Wind:
Northeast at 3.5 mph
Dew Point:
36.0 F° (2.2 C°)
Visibility:
10.00 mi
TUS NOAA Radar




Find All Airport Services Find A Hotel Find A Rental Car Find A Golf Course Find A Restaurant $100 Hamburger



Airport Weather Forecast for KTUS

Translated METAR for KTUS (1053 UTC)
METAR:
KTUS 061053Z 23006KT 10SM CLR 19/02 A2985 RMK AO2 SLP063 T01940022
Conditions at:
KTUS (Tucson Intl, AZ) observed 1053 UTC 06 May 2016
Temperature:
19°C (66.2°F)
Dewpoint:
2°C (35.6°F) [RH = 32.2]
Pressure:
29.85 inches Hg (1010.8 mb)
pressure at sea level is 63 in Hg
Winds:
from the SW (230 degrees) at 6.9 mph (6 knots: 3.1 m/s)
Visibility:
10 mile(s)
Ceiling:
at least 12,000 feet AGL
Clouds:
Clear below 12,000 feet AGL
Remarks:
site is automated and HAS a precipitation sensor

Translated TAF for KTUS (Tucson Intl, AZ) (0536 UTC)
TAF text:
KTUS 060536Z 0606/0706 29007KT P6SM SKC
Forecast period:
Friday May 06 2016 06:00 UTC - Saturday May 07 2016 06:00 UTC
Forecast type:
FROM: standard forecast or significant change
Winds:
from the WNW (290 degrees) at 8.1 mph (7 knots: 3.6 m/s)
Visibility:
6 or more mile(s) (9.7+ km)
Ceiling:
at least 12,000 feet AGL
Clouds:
Clear Skies
Weather:
no significant weather observed at this time
TAF text:
FM060800 18007KT P6SM SKC
Forecast period:
Friday May 06 2016 08:00 UTC - Friday May 06 2016 16:00 UTC
Forecast type:
FROM: standard forecast or significant change
Winds:
from the S (180 degrees) at 8.1 mph (7 knots: 3.6 m/s)
Visibility:
6 or more mile(s) (9.7+ km)
Ceiling:
at least 12,000 feet AGL
Clouds:
Clear Skies
Weather:
no significant weather observed at this time
TAF text:
FM061600 21014G22KT P6SM FEW100
Forecast period:
Friday May 06 2016 16:00 UTC - Friday May 06 2016 19:00 UTC
Forecast type:
FROM: standard forecast or significant change
Winds:
from the SSW (210 degrees) at 16.1 mph (14 knots: 7.2 m/s)
gusting to 25.3 mph (22 knots: 11.3 m/s)
Visibility:
6 or more mile(s) (9.7+ km)
Ceiling:
at least 12,000 feet AGL
Clouds:
Few Clouds at 10,000 feet AGL
Weather:
no significant weather observed at this time
TAF text:
FM061900 22020G30KT P6SM SCT100
Forecast period:
Friday May 06 2016 19:00 UTC - Saturday May 07 2016 02:00 UTC
Forecast type:
FROM: standard forecast or significant change
Winds:
from the SW (220 degrees) at 23 mph (20 knots: 10.3 m/s)
gusting to 34.5 mph (30 knots: 15.4 m/s)
Visibility:
6 or more mile(s) (9.7+ km)
Ceiling:
at least 12,000 feet AGL
Clouds:
Scattered Clouds at 10,000 feet AGL
Weather:
no significant weather observed at this time
TAF text:
FM070200 24013KT P6SM SCT100
Forecast period:
Saturday May 07 2016 02:00 UTC - Saturday May 07 2016 06:00 UTC
Forecast type:
FROM: standard forecast or significant change
Winds:
from the WSW (240 degrees) at 15 mph (13 knots: 6.7 m/s)
Visibility:
6 or more mile(s) (9.7+ km)
Ceiling:
at least 12,000 feet AGL
Clouds:
Scattered Clouds at 10,000 feet AGL
Weather:
no significant weather observed at this time
FBO's on the Field
FBO Company Facility Photos Services Transportation Aviation Fuel Prices: Prices include tax
Catering Weather Repair Courtesy Rental Type 100LL JetA JetA+ MOGAS 8087
 
Bombardier Aerospace

Bombardier Aerospace logo
Currently rated 4.6 by 1 person
FS:
Last Updated: Mar-28
Login to update fuel prices
SS:
Contact Bombardier AerospaceMore FBO Information
 
Atlantic Aviation - TUS

Currently rated 5 by 2 people
FS:Independent
Last Updated: May-05
Login to update fuel prices
SS:
Contact Atlantic Aviation - TUSMore FBO Information
 
Million Air Tucson

Currently rated 5 by 4 people
FS:Independent
Last Updated: Apr-28
Login to update fuel prices
SS:
Contact Million Air TucsonMore FBO Information
 
Premier Aviation (Million Air)

This FBO has not yet been rated
FS:Independent
Last Updated: Mar-23
Login to update fuel prices
SS:
Contact Premier Aviation (Million Air)More FBO Information
 
Tucson Jet Center

Currently rated 5 by 3 people
FS:Independent
Last Updated: May-02
Login to update fuel prices
SS:
Contact Tucson Jet CenterMore FBO Information
 
Velocity Air Inc.

Currently rated 5 by 1 person
FS:Ascent
Last Updated: Apr-22
Login to update fuel prices
SS:
Contact Velocity Air Inc.More FBO Information
 
Add another FBO Facility Photos Catering Weather Repair Courtesy Rental Type 100LL JetA JetA+ MOGAS 8087
Services Transportation Aviation Fuel Prices: Prices include tax


model-print
model-print
model-print
model-print